Time;durP1;ratioP1;P1;durP2;ratioP2;P2;SDS_P1;SDS_P2;PMS_P1;PMS_P2;Temp;Humidity;BMP_temperature;BMP_pressure;BME280_temperature;BME280_humidity;BME280_pressure;Samples;Min_cycle;Max_cycle;Signal;HPM_P1;HPM_P2
2022/05/26 00:02:20;;;;;;;1999.90;999.90;;;15.40;99.90;;;;;;4916641;29;20488;-76
2022/05/26 00:04:46;;;;;;;1999.90;999.90;;;15.50;99.90;;;;;;4916899;29;20084;-76
2022/05/26 00:07:11;;;;;;;1999.90;999.90;;;15.50;99.90;;;;;;4927288;29;20083;-77
2022/05/26 00:09:37;;;;;;;1999.90;999.90;;;15.50;99.90;;;;;;4916287;29;20477;-76
2022/05/26 00:12:04;;;;;;;1999.90;999.90;;;15.50;99.90;;;;;;4916598;29;20444;-76
2022/05/26 00:14:30;;;;;;;1999.90;999.90;;;15.50;99.90;;;;;;4915977;29;20051;-72
2022/05/26 00:16:56;;;;;;;1999.90;999.90;;;15.50;99.90;;;;;;4923904;29;20102;-75
2022/05/26 00:19:22;;;;;;;1999.90;999.90;;;15.50;99.90;;;;;;4919934;29;20123;-71
2022/05/26 00:21:49;;;;;;;1999.90;999.90;;;15.60;99.90;;;;;;4915854;29;20043;-72
2022/05/26 00:24:18;;;;;;;1999.90;999.90;;;15.60;99.90;;;;;;4916194;29;20031;-71
2022/05/26 00:26:44;;;;;;;1999.90;999.90;;;15.60;99.90;;;;;;4915983;29;20436;-76
2022/05/26 00:29:10;;;;;;;1999.90;999.90;;;15.60;99.90;;;;;;4916697;29;20035;-76
2022/05/26 00:31:36;;;;;;;1999.90;999.90;;;15.60;99.90;;;;;;4917762;29;20487;-76
2022/05/26 00:34:02;;;;;;;1999.90;999.90;;;15.50;99.90;;;;;;4919500;29;20062;-76
2022/05/26 00:36:37;;;;;;;1999.90;999.90;;;15.30;99.90;;;;;;4919707;29;20487;-76
2022/05/26 00:39:08;;;;;;;1999.90;999.90;;;15.20;99.90;;;;;;4919370;29;20152;-71
2022/05/26 00:41:38;;;;;;;1999.90;999.90;;;15.20;99.90;;;;;;4919710;29;20079;-71
2022/05/26 00:44:04;;;;;;;1999.90;999.90;;;15.10;99.90;;;;;;4918684;29;20103;-76
2022/05/26 00:46:41;;;;;;;1999.90;999.90;;;15.10;99.90;;;;;;4921597;29;20075;-76
2022/05/26 00:49:18;;;;;;;1999.90;999.90;;;15.20;99.90;;;;;;4918843;29;20028;-71
2022/05/26 00:51:46;;;;;;;1999.90;999.90;;;15.20;99.90;;;;;;4927874;29;20475;-72
2022/05/26 00:54:18;;;;;;;1999.90;999.90;;;15.30;99.90;;;;;;4919919;29;20052;-76
2022/05/26 00:57:04;;;;;;;1999.90;999.90;;;15.30;99.90;;;;;;4919017;29;20379;-76
2022/05/26 00:59:48;;;;;;;1999.90;999.90;;;15.40;99.90;;;;;;4918801;29;20487;-76
2022/05/26 01:02:17;;;;;;;1999.90;999.90;;;15.40;99.90;;;;;;4919874;29;20028;-72
2022/05/26 01:04:52;;;;;;;1999.90;999.90;;;15.50;99.90;;;;;;4919125;29;20115;-72
2022/05/26 01:07:24;;;;;;;1999.90;999.90;;;15.50;99.90;;;;;;4918922;29;20031;-75
2022/05/26 01:09:50;;;;;;;1999.90;999.90;;;15.50;99.90;;;;;;4919027;29;20506;-77
2022/05/26 01:12:16;;;;;;;1999.90;999.90;;;15.50;99.90;;;;;;4925047;29;20260;-73
2022/05/26 01:15:15;;;;;;;1999.90;999.90;;;15.50;99.90;;;;;;4918093;29;20051;-76
2022/05/26 01:18:03;;;;;;;1999.90;999.90;;;15.60;99.90;;;;;;4917163;29;20483;-76
2022/05/26 01:20:36;;;;;;;1999.90;999.90;;;15.70;99.90;;;;;;4917645;29;20091;-72
2022/05/26 01:23:14;;;;;;;;;;;15.70;99.90;;;;;;4921612;29;20032;-72
2022/05/26 01:26:03;;;;;;;1999.90;999.90;;;15.70;99.90;;;;;;4918918;29;19918;-76
2022/05/26 01:28:53;;;;;;;1999.90;999.90;;;15.70;99.90;;;;;;4917504;29;20031;-76
2022/05/26 01:31:46;;;;;;;1999.90;999.90;;;15.80;99.90;;;;;;4916502;29;20024;-76
2022/05/26 01:34:19;;;;;;;1999.90;999.90;;;15.70;99.90;;;;;;4919614;29;20032;-76
2022/05/26 01:37:00;;;;;;;1999.90;999.90;;;15.70;99.90;;;;;;4918529;29;20111;-76
2022/05/26 01:39:31;;;;;;;1999.90;999.90;;;15.80;99.90;;;;;;4918509;29;20490;-72
2022/05/26 01:42:09;;;;;;;1999.90;999.90;;;15.80;99.90;;;;;;4917386;29;20055;-72
2022/05/26 01:44:39;;;;;;;1999.90;999.90;;;15.80;99.90;;;;;;4906940;29;20032;-71
2022/05/26 01:47:17;;;;;;;1999.90;999.90;;;15.80;99.90;;;;;;4921659;29;20036;-71
2022/05/26 01:50:00;;;;;;;1999.90;999.90;;;15.80;99.90;;;;;;4918251;29;20441;-76
2022/05/26 01:52:52;;;;;;;;;;;15.80;99.90;;;;;;4925316;29;20391;-76
2022/05/26 01:55:24;;;;;;;1999.90;999.90;;;15.80;99.90;;;;;;4917679;29;19917;-72
2022/05/26 01:57:56;;;;;;;1999.90;999.90;;;15.80;99.90;;;;;;4918015;29;20028;-72
2022/05/26 02:00:22;;;;;;;1999.90;999.90;;;15.80;99.90;;;;;;4918023;29;20036;-72
2022/05/26 02:02:59;;;;;;;1999.90;999.90;;;15.70;99.90;;;;;;4918460;29;20423;-72
2022/05/26 02:05:29;;;;;;;1999.90;999.90;;;15.70;99.90;;;;;;4924146;29;20027;-76
2022/05/26 02:08:27;;;;;;;1999.90;999.90;;;15.70;99.90;;;;;;4923826;29;20047;-72
2022/05/26 02:11:01;;;;;;;1999.90;999.90;;;15.70;99.90;;;;;;4917843;29;20039;-72
2022/05/26 02:13:33;;;;;;;1999.90;999.90;;;15.70;99.90;;;;;;4918896;29;20043;-76
2022/05/26 02:16:38;;;;;;;1999.90;999.90;;;15.70;99.90;;;;;;4917596;29;20084;-76
2022/05/26 02:19:33;;;;;;;1999.90;999.90;;;15.70;99.90;;;;;;4907137;29;20047;-76
2022/05/26 02:22:20;;;;;;;1999.90;999.90;;;15.70;99.90;;;;;;4915396;29;20376;-71
2022/05/26 02:25:07;;;;;;;1999.90;999.90;;;15.70;99.90;;;;;;4918488;29;20115;-72
2022/05/26 02:27:35;;;;;;;1999.90;999.90;;;15.70;99.90;;;;;;4917555;29;20028;-76
2022/05/26 02:30:02;;;;;;;1999.90;999.90;;;15.70;99.90;;;;;;4917838;29;20039;-76
2022/05/26 02:32:35;;;;;;;1999.90;999.90;;;15.70;99.90;;;;;;4919322;29;20028;-72
2022/05/26 02:35:07;;;;;;;1999.90;999.90;;;15.70;99.90;;;;;;4917794;29;20040;-76
2022/05/26 02:37:35;;;;;;;1999.90;999.90;;;15.60;99.90;;;;;;4917934;29;20028;-76
2022/05/26 02:40:01;;;;;;;1999.90;999.90;;;15.60;99.90;;;;;;4917553;29;20062;-76
2022/05/26 02:42:28;;;;;;;1999.90;999.90;;;15.70;99.90;;;;;;4929147;29;20035;-76
2022/05/26 02:44:54;;;;;;;1999.90;999.90;;;15.70;99.90;;;;;;4916935;29;20039;-76
2022/05/26 02:47:53;;;;;;;1999.90;999.90;;;15.70;99.90;;;;;;4919853;29;20020;-76
2022/05/26 02:50:26;;;;;;;1999.90;999.90;;;15.60;99.90;;;;;;4918588;29;20079;-76
2022/05/26 02:52:52;;;;;;;1999.90;999.90;;;15.60;99.90;;;;;;4921750;29;20111;-76
2022/05/26 02:55:20;;;;;;;1999.90;999.90;;;15.60;99.90;;;;;;4916997;29;20099;-72
2022/05/26 02:58:00;;;;;;;1999.90;999.90;;;15.60;99.90;;;;;;4916882;29;20032;-74
2022/05/26 03:00:43;;;;;;;1999.90;999.90;;;15.60;99.90;;;;;;4916948;29;20396;-76
2022/05/26 03:03:19;;;;;;;1999.90;999.90;;;15.60;99.90;;;;;;4917189;29;20028;-76
2022/05/26 03:05:57;;;;;;;1999.90;999.90;;;15.60;99.90;;;;;;4925478;29;20063;-76
2022/05/26 03:08:27;;;;;;;1999.90;999.90;;;15.60;99.90;;;;;;4920400;29;20020;-76
2022/05/26 03:11:01;;;;;;;1999.90;999.90;;;15.60;99.90;;;;;;4916840;29;20034;-71
2022/05/26 03:13:27;;;;;;;1999.90;999.90;;;15.60;99.90;;;;;;4917344;29;20484;-72
2022/05/26 03:15:54;;;;;;;1999.90;999.90;;;15.60;99.90;;;;;;4916794;29;20150;-76
2022/05/26 03:18:20;;;;;;;1999.90;999.90;;;15.50;99.90;;;;;;4906647;29;20028;-76
2022/05/26 03:20:45;;;;;;;1999.90;999.90;;;15.40;99.90;;;;;;4916912;29;20509;-76
2022/05/26 03:23:11;;;;;;;1999.90;999.90;;;15.40;99.90;;;;;;4916688;29;20062;-72
2022/05/26 03:25:37;;;;;;;1999.90;999.90;;;15.30;99.90;;;;;;4916385;29;20521;-76
2022/05/26 03:28:02;;;;;;;1999.90;999.90;;;15.30;99.90;;;;;;4918536;29;20024;-72
2022/05/26 03:30:28;;;;;;;1999.90;999.90;;;15.30;99.90;;;;;;4916118;29;20036;-76
2022/05/26 03:32:54;;;;;;;1999.90;999.90;;;15.30;99.90;;;;;;4915452;29;20107;-76
2022/05/26 03:40:55;;;;;;;1999.90;999.90;;;15.20;99.90;;;;;;4916802;29;20082;-76
2022/05/26 03:43:26;;;;;;;1999.90;999.90;;;15.20;99.90;;;;;;4916581;29;20024;-71
2022/05/26 03:45:51;;;;;;;1999.90;999.90;;;15.20;99.90;;;;;;4918483;29;20027;-72
2022/05/26 03:48:17;;;;;;;1999.90;999.90;;;15.20;99.90;;;;;;4917167;29;20047;-73
2022/05/26 03:50:43;;;;;;;1999.90;999.90;;;15.20;99.90;;;;;;4916517;29;20463;-76
2022/05/26 03:53:09;;;;;;;1999.90;999.90;;;15.20;99.90;;;;;;4922354;29;20024;-76
2022/05/26 03:55:34;;;;;;;1999.90;999.90;;;15.20;99.90;;;;;;4915831;29;20035;-72
2022/05/26 03:58:01;;;;;;;1999.90;999.90;;;15.20;99.90;;;;;;4916426;29;20032;-76
2022/05/26 04:00:27;;;;;;;1999.90;999.90;;;15.20;99.90;;;;;;4916112;29;20415;-71
2022/05/26 04:02:52;;;;;;;1999.90;999.90;;;15.20;99.90;;;;;;4916654;29;20024;-72
2022/05/26 04:05:19;;;;;;;1999.90;999.90;;;15.20;99.90;;;;;;4922777;29;20067;-76
2022/05/26 04:07:45;;;;;;;1999.90;999.90;;;15.20;99.90;;;;;;4927358;29;20020;-76
2022/05/26 04:10:12;;;;;;;1999.90;999.90;;;15.10;99.90;;;;;;4922217;29;20032;-76
2022/05/26 04:12:38;;;;;;;1999.90;999.90;;;15.20;99.90;;;;;;4918923;29;20036;-76
2022/05/26 04:15:06;;;;;;;1999.90;999.90;;;15.20;99.90;;;;;;4919396;29;20499;-72
2022/05/26 04:17:32;;;;;;;1999.90;999.90;;;15.10;99.90;;;;;;4908912;29;20020;-72
2022/05/26 04:19:57;;;;;;;1999.90;999.90;;;15.10;99.90;;;;;;4918788;29;20404;-75
2022/05/26 04:22:23;;;;;;;1999.90;999.90;;;15.10;99.90;;;;;;4920021;29;20032;-72
2022/05/26 04:24:56;;;;;;;1999.90;999.90;;;15.10;99.90;;;;;;4919227;29;20035;-76
2022/05/26 04:27:24;;;;;;;1999.90;999.90;;;15.20;99.90;;;;;;4920537;29;20029;-76
2022/05/26 04:29:50;;;;;;;1999.90;999.90;;;15.10;99.90;;;;;;4919874;29;20035;-72
2022/05/26 04:32:19;;;;;;;1999.90;999.90;;;15.10;99.90;;;;;;4915758;29;20481;-75
2022/05/26 04:34:48;;;;;;;1999.90;999.90;;;15.10;99.90;;;;;;4919870;29;20028;-76
2022/05/26 04:37:18;;;;;;;1999.90;999.90;;;15.10;99.90;;;;;;4921660;29;20056;-75
2022/05/26 04:39:43;;;;;;;1999.90;999.90;;;15.10;99.90;;;;;;4915075;29;20059;-76
2022/05/26 04:42:10;;;;;;;1999.90;999.90;;;15.10;99.90;;;;;;4914692;29;20452;-76
2022/05/26 04:44:41;;;;;;;1999.90;999.90;;;15.10;99.90;;;;;;4919408;29;20027;-76
2022/05/26 04:47:08;;;;;;;1999.90;999.90;;;15.10;99.90;;;;;;4922869;29;20032;-72
2022/05/26 04:49:37;;;;;;;1999.90;999.90;;;15.10;99.90;;;;;;4927997;29;20024;-72
2022/05/26 04:52:04;;;;;;;1999.90;999.90;;;15.10;99.90;;;;;;4928793;29;20034;-76
2022/05/26 04:54:30;;;;;;;1999.90;999.90;;;15.00;99.90;;;;;;4919348;29;20021;-76
2022/05/26 04:56:59;;;;;;;1999.90;999.90;;;15.10;99.90;;;;;;4918611;29;20447;-76
2022/05/26 04:59:25;;;;;;;1999.90;999.90;;;15.10;99.90;;;;;;4919290;29;20052;-76
2022/05/26 05:01:51;;;;;;;1999.90;999.90;;;15.10;99.90;;;;;;4917974;29;20039;-72
2022/05/26 05:04:17;;;;;;;1999.90;999.90;;;15.10;99.90;;;;;;4919072;29;20036;-75
2022/05/26 05:06:43;;;;;;;1999.90;999.90;;;15.00;99.90;;;;;;4918832;29;20032;-76
2022/05/26 05:09:09;;;;;;;1999.90;999.90;;;15.00;99.90;;;;;;4919554;29;20025;-72
2022/05/26 05:11:35;;;;;;;1999.90;999.90;;;15.00;99.90;;;;;;4918665;29;20064;-76
2022/05/26 05:14:04;;;;;;;1999.90;999.90;;;15.00;99.90;;;;;;4919295;29;20055;-76
2022/05/26 05:16:42;;;;;;;1999.90;999.90;;;14.90;99.90;;;;;;4917388;29;20080;-76
2022/05/26 05:19:08;;;;;;;1999.90;999.90;;;14.90;99.90;;;;;;4918472;29;20566;-76
2022/05/26 05:21:40;;;;;;;1999.90;999.90;;;15.00;99.90;;;;;;4918459;29;20071;-72
2022/05/26 05:24:14;;;;;;;1999.90;999.90;;;15.00;99.90;;;;;;4918991;29;20025;-76
2022/05/26 05:26:43;;;;;;;1999.90;999.90;;;15.00;99.90;;;;;;4917461;29;20035;-76
2022/05/26 05:29:14;;;;;;;1999.90;999.90;;;15.00;99.90;;;;;;4918276;29;20526;-76
2022/05/26 05:31:45;;;;;;;1999.90;999.90;;;15.10;99.90;;;;;;4918760;29;20340;-76
2022/05/26 05:34:23;;;;;;;1999.90;999.90;;;15.10;99.90;;;;;;4919755;29;20038;-76
2022/05/26 05:36:49;;;;;;;1999.90;999.90;;;15.10;99.90;;;;;;4918376;29;20036;-73
2022/05/26 05:39:14;;;;;;;1999.90;999.90;;;15.20;99.90;;;;;;4918588;29;20031;-75
2022/05/26 05:41:40;;;;;;;1999.90;999.90;;;15.30;99.90;;;;;;4918419;29;20039;-76
2022/05/26 05:44:06;;;;;;;1999.90;999.90;;;15.40;99.90;;;;;;4918453;29;20108;-76
2022/05/26 05:46:53;;;;;;;1999.90;999.90;;;15.40;99.90;;;;;;4925668;29;20042;-76
2022/05/26 05:49:24;;;;;;;1999.90;999.90;;;15.40;99.90;;;;;;4930066;29;20027;-75
2022/05/26 05:51:50;;;;;;;1999.90;999.90;;;15.40;99.90;;;;;;4923077;29;20400;-76
2022/05/26 05:54:17;;;;;;;1999.90;999.90;;;15.40;99.90;;;;;;4918463;29;20056;-76
2022/05/26 05:56:43;;;;;;;1999.90;999.90;;;15.50;99.90;;;;;;4917806;29;20051;-76
2022/05/26 05:59:09;;;;;;;1999.90;999.90;;;15.70;99.90;;;;;;4917818;29;20067;-76
2022/05/26 06:01:37;;;;;;;1999.90;999.90;;;15.70;99.90;;;;;;4917915;29;20060;-76
2022/05/26 06:04:03;;;;;;;1999.90;999.90;;;15.80;99.90;;;;;;4918292;29;20052;-76
2022/05/26 06:06:36;;;;;;;1999.90;999.90;;;15.80;99.90;;;;;;4929245;29;20032;-76
2022/05/26 06:09:01;;;;;;;1999.90;999.90;;;15.90;99.90;;;;;;4918680;29;20024;-76
2022/05/26 06:11:27;;;;;;;1999.90;999.90;;;16.00;99.90;;;;;;4917533;29;20039;-76
2022/05/26 06:13:54;;;;;;;1999.90;999.90;;;16.10;99.90;;;;;;4918137;29;20032;-76
2022/05/26 06:16:19;;;;;;;1999.90;999.90;;;16.10;99.90;;;;;;4917403;29;20032;-76
2022/05/26 06:18:46;;;;;;;1999.90;999.90;;;16.20;99.90;;;;;;4917695;29;20040;-72
2022/05/26 06:21:12;;;;;;;1999.90;999.90;;;16.20;99.90;;;;;;4917206;29;20110;-72
2022/05/26 06:23:37;;;;;;;1999.90;999.90;;;16.20;99.90;;;;;;4917587;29;20547;-76
2022/05/26 06:26:03;;;;;;;1999.90;999.90;;;16.10;99.90;;;;;;4917480;29;20024;-72
2022/05/26 06:31:13;;;;;;;1999.90;999.90;;;16.20;99.90;;;;;;4916655;29;20032;-76
2022/05/26 06:39:07;;;;;;;1999.90;999.90;;;16.80;99.90;;;;;;4917417;29;20079;-76
2022/05/26 06:44:18;;;;;;;1999.90;999.90;;;16.80;99.90;;;;;;4917581;29;20043;-76
2022/05/26 06:46:44;;;;;;;1999.90;999.90;;;17.00;99.90;;;;;;4918832;29;20090;-76
2022/05/26 06:49:10;;;;;;;1999.90;999.90;;;17.10;99.90;;;;;;4917431;29;20032;-72
2022/05/26 06:51:39;;;;;;;1999.90;999.90;;;17.20;99.90;;;;;;4914213;29;20494;-76
2022/05/26 06:54:06;;;;;;;1999.90;999.90;;;17.30;99.90;;;;;;4916675;29;20038;-73
2022/05/26 06:56:32;;;;;;;1999.90;999.90;;;17.40;99.90;;;;;;4916922;29;20032;-76
2022/05/26 06:58:57;;;;;;;1999.90;999.90;;;17.40;99.90;;;;;;4917257;29;20087;-76
2022/05/26 07:01:23;;;;;;;1999.90;999.90;;;17.40;99.90;;;;;;4916088;29;20024;-76
2022/05/26 07:03:49;;;;;;;1999.90;999.90;;;17.40;99.90;;;;;;4917172;29;20039;-76
2022/05/26 07:06:18;;;;;;;1999.90;999.90;;;17.40;99.90;;;;;;4927964;29;20376;-73
2022/05/26 07:08:45;;;;;;;1999.90;999.90;;;17.40;99.90;;;;;;4917230;29;20027;-76
2022/05/26 07:11:11;;;;;;;1999.90;999.90;;;17.60;99.90;;;;;;4916360;29;20044;-76
2022/05/26 07:13:37;;;;;;;1999.90;999.90;;;17.90;99.90;;;;;;4915178;29;20460;-76
2022/05/26 07:16:03;;;;;;;1999.90;999.90;;;18.00;99.90;;;;;;4916229;29;20112;-72
2022/05/26 07:18:29;;;;;;;1999.90;999.90;;;17.80;99.90;;;;;;4927815;29;20085;-72
2022/05/26 07:20:55;;;;;;;1999.90;999.90;;;17.80;99.90;;;;;;4916765;29;20083;-76
2022/05/26 07:23:21;;;;;;;1999.90;999.90;;;17.90;99.90;;;;;;4917328;29;20124;-76
2022/05/26 07:25:47;;;;;;;1999.90;999.90;;;17.70;99.90;;;;;;4916826;29;20115;-73
2022/05/26 07:28:12;;;;;;;1999.90;999.90;;;17.70;99.90;;;;;;4912430;29;20067;-72
2022/05/26 07:30:39;;;;;;;1999.90;999.90;;;17.80;99.90;;;;;;4911209;29;20024;-76
2022/05/26 07:33:05;;;;;;;1999.90;999.90;;;18.30;99.90;;;;;;4916527;29;20080;-76
2022/05/26 07:35:31;;;;;;;1999.90;999.90;;;19.40;99.90;;;;;;4916371;29;20024;-73
2022/05/26 07:43:28;;;;;;;1999.90;999.90;;;19.30;99.90;;;;;;4920490;29;20043;-73
2022/05/26 07:45:54;;;;;;;1999.90;999.90;;;18.80;99.90;;;;;;4922732;29;20020;-76
2022/05/26 07:48:20;;;;;;;1999.90;999.90;;;18.50;99.90;;;;;;4919789;29;20099;-76
2022/05/26 07:50:45;;;;;;;1999.90;999.90;;;18.20;99.90;;;;;;4924480;29;20019;-73
2022/05/26 07:53:11;;;;;;;1999.90;999.90;;;17.80;99.90;;;;;;4922733;29;20039;-76
2022/05/26 07:55:38;;;;;;;1999.90;999.90;;;17.80;99.90;;;;;;4920227;29;20076;-76
2022/05/26 07:58:04;;;;;;;1999.90;999.90;;;17.80;99.90;;;;;;4920119;29;20024;-76
2022/05/26 08:00:30;;;;;;;1999.90;999.90;;;17.90;99.90;;;;;;4919988;29;20104;-76
2022/05/26 08:02:59;;;;;;;1999.90;999.90;;;18.20;99.90;;;;;;4919681;29;20028;-73
2022/05/26 08:05:24;;;;;;;1999.90;999.90;;;18.70;99.90;;;;;;4919834;29;20032;-72
2022/05/26 08:07:50;;;;;;;1999.90;999.90;;;19.60;99.90;;;;;;4920349;29;20025;-73
2022/05/26 08:10:16;;;;;;;1999.90;999.90;;;20.50;99.90;;;;;;4919908;29;20051;-73
2022/05/26 08:12:41;;;;;;;1999.90;999.90;;;23.20;99.20;;;;;;4920144;29;20032;-71
2022/05/26 08:15:09;;;;;;;1999.90;999.90;;;24.30;95.60;;;;;;4919869;29;20380;-74
2022/05/26 08:17:35;;;;;;;1999.90;999.90;;;22.50;96.60;;;;;;4919927;29;20488;-72
2022/05/26 08:20:01;;;;;;;1999.90;999.90;;;24.80;94.50;;;;;;4919258;29;20107;-72
2022/05/26 08:22:26;;;;;;;1999.90;999.90;;;27.30;91.70;;;;;;4919907;29;20507;-72
2022/05/26 08:24:57;;;;;;;1999.90;999.90;;;28.90;90.10;;;;;;4919769;29;20076;-72
2022/05/26 08:27:23;;;;;;;1999.90;999.90;;;29.70;88.00;;;;;;4919798;29;20031;-76
2022/05/26 08:29:49;;;;;;;1999.90;999.90;;;29.20;87.10;;;;;;4919831;29;20036;-71
2022/05/26 08:32:16;;;;;;;1999.90;999.90;;;27.10;89.90;;;;;;4919980;29;20028;-75
2022/05/26 08:34:42;;;;;;;1999.90;999.90;;;25.00;91.50;;;;;;4918981;29;20028;-75
2022/05/26 08:37:19;;;;;;;1999.90;999.90;;;22.70;94.00;;;;;;4919505;29;20060;-74
2022/05/26 08:39:46;;;;;;;1999.90;999.90;;;21.70;96.30;;;;;;4908666;29;20107;-71
2022/05/26 08:42:18;;;;;;;1999.90;999.90;;;21.50;97.20;;;;;;4919423;29;20515;-71
2022/05/26 08:44:44;;;;;;;1999.90;999.90;;;23.70;93.80;;;;;;4909953;29;20087;-74
2022/05/26 08:47:16;;;;;;;1999.90;999.90;;;22.40;94.90;;;;;;4922972;29;20047;-71
2022/05/26 08:50:23;;;;;;;1999.90;999.90;;;21.40;96.30;;;;;;4918856;29;20050;-71
2022/05/26 08:52:58;;;;;;;1999.90;999.90;;;20.70;97.40;;;;;;4869481;29;20097;-71
2022/05/26 08:55:46;;;;;;;1999.90;999.90;;;20.10;98.70;;;;;;4879628;29;20037;-74
2022/05/26 08:58:14;;;;;;;1999.90;999.90;;;19.70;99.30;;;;;;4879360;29;20400;-71
2022/05/26 09:00:41;;;;;;;1999.90;999.90;;;19.40;99.50;;;;;;4879283;29;20048;-74
2022/05/26 09:03:34;;;;;;;1999.90;999.90;;;19.40;99.90;;;;;;4879860;29;20084;-71
2022/05/26 09:06:02;;;;;;;1999.90;999.90;;;19.40;99.90;;;;;;4875696;29;20560;-74
2022/05/26 09:12:55;;;;;;;1999.90;999.90;;;19.40;99.90;;;;;;4879046;29;20169;-71
2022/05/26 09:14:26;;;;;;;1999.90;999.90;;;19.50;99.90;;;;;;4879433;29;20041;-74
2022/05/26 09:17:10;;;;;;;1999.90;999.90;;;19.30;99.90;;;;;;4879311;29;20040;-74
2022/05/26 09:19:45;;;;;;;1999.90;999.90;;;19.20;99.90;;;;;;4878534;29;20044;-74
2022/05/26 09:22:44;;;;;;;1999.90;999.90;;;18.90;99.90;;;;;;4879037;29;20044;-71
2022/05/26 09:25:33;;;;;;;1999.90;999.90;;;18.60;99.90;;;;;;4868951;29;20025;-74
2022/05/26 09:27:59;;;;;;;1999.90;999.90;;;18.60;99.90;;;;;;4908209;29;20103;-71
2022/05/26 09:30:28;;;;;;;1999.90;999.90;;;18.60;99.90;;;;;;4918751;29;20024;-70
2022/05/26 09:32:54;;;;;;;1999.90;999.90;;;18.50;99.90;;;;;;4918410;29;20056;-74
2022/05/26 09:35:20;;;;;;;1999.90;999.90;;;18.40;99.90;;;;;;4918362;29;20028;-74
2022/05/26 09:37:50;;;;;;;1999.90;999.90;;;18.30;99.90;;;;;;4916961;29;20023;-76
2022/05/26 09:40:19;;;;;;;1999.90;999.90;;;18.10;99.90;;;;;;4918481;29;20032;-73
2022/05/26 09:42:47;;;;;;;1999.90;999.90;;;18.00;99.90;;;;;;4918434;29;20531;-75
2022/05/26 09:45:16;;;;;;;1999.90;999.90;;;18.00;99.90;;;;;;4918575;29;20039;-73
2022/05/26 09:47:58;;;;;;;1999.90;999.90;;;18.00;99.90;;;;;;4928482;29;20023;-76
2022/05/26 09:50:33;;;;;;;1999.90;999.90;;;17.90;99.90;;;;;;4921840;29;20498;-76
2022/05/26 09:53:00;;;;;;;1999.90;999.90;;;17.70;99.90;;;;;;4923347;29;20020;-76
2022/05/26 09:55:26;;;;;;;1999.90;999.90;;;17.40;99.90;;;;;;4918202;29;20031;-72
2022/05/26 09:58:05;;;;;;;1999.90;999.90;;;17.30;99.90;;;;;;4917770;29;20028;-76
2022/05/26 10:00:38;;;;;;;1999.90;999.90;;;17.20;99.90;;;;;;4913663;29;20032;-76
2022/05/26 10:03:22;;;;;;;1999.90;999.90;;;17.30;99.90;;;;;;4911810;29;20111;-76
2022/05/26 10:05:57;;;;;;;1999.90;999.90;;;17.40;99.90;;;;;;4925882;29;20036;-72
2022/05/26 10:08:35;;;;;;;1999.90;999.90;;;17.50;99.90;;;;;;4918989;29;20035;-72
2022/05/26 10:11:36;;;;;;;1999.90;999.90;;;17.60;99.90;;;;;;4917520;29;20028;-71
2022/05/26 10:14:28;;;;;;;1999.90;999.90;;;17.50;99.90;;;;;;4897351;29;20115;-76
2022/05/26 10:17:08;;;;;;;1999.90;999.90;;;17.60;99.90;;;;;;4912365;29;20036;-76
2022/05/26 10:19:55;;;;;;;1999.90;999.90;;;18.10;99.90;;;;;;4920778;29;20050;-72
2022/05/26 10:22:27;;;;;;;1999.90;999.90;;;18.50;99.90;;;;;;4917338;29;20036;-72
2022/05/26 10:25:04;;;;;;;1999.90;999.90;;;18.90;99.90;;;;;;4917389;29;20495;-71
2022/05/26 10:27:50;;;;;;;1999.90;999.90;;;19.10;99.90;;;;;;4917257;29;20025;-75
2022/05/26 10:30:25;;;;;;;1999.90;999.90;;;19.00;99.90;;;;;;4917007;29;20020;-72
2022/05/26 10:33:11;;;;;;;1999.90;999.90;;;19.10;99.90;;;;;;4917764;29;20487;-71
2022/05/26 10:36:08;;;;;;;1999.90;999.90;;;19.20;99.90;;;;;;4917066;29;20036;-75
2022/05/26 10:39:01;;;;;;;1999.90;999.90;;;19.70;99.90;;;;;;4916933;29;20059;-76
2022/05/26 10:41:26;;;;;;;;;;;20.00;99.90;;;;;;4907235;29;20028;-76
2022/05/26 10:44:17;;;;;;;1999.90;999.90;;;20.10;99.90;;;;;;4917205;29;19935;-76
2022/05/26 10:46:50;;;;;;;1999.90;999.90;;;20.40;99.90;;;;;;4921633;29;20399;-72
2022/05/26 10:49:34;;;;;;;1999.90;999.90;;;20.70;99.90;;;;;;4912780;29;20050;-72
2022/05/26 10:52:14;;;;;;;1999.90;999.90;;;20.80;99.90;;;;;;4921922;29;20027;-76
2022/05/26 10:54:52;;;;;;;1999.90;999.90;;;21.00;99.90;;;;;;4917252;29;20029;-76
2022/05/26 10:57:30;;;;;;;1999.90;999.90;;;21.10;99.90;;;;;;4916282;29;20491;-76
2022/05/26 11:00:08;;;;;;;1999.90;999.90;;;20.90;99.90;;;;;;4916998;29;20024;-72
2022/05/26 11:03:13;;;;;;;1999.90;999.90;;;20.70;99.90;;;;;;4916987;29;20080;-76
2022/05/26 11:05:47;;;;;;;1999.90;999.90;;;20.80;99.90;;;;;;4923692;29;20517;-76
2022/05/26 11:08:19;;;;;;;1999.90;999.90;;;20.70;99.90;;;;;;4919523;29;20587;-72
2022/05/26 11:10:53;;;;;;;1999.90;999.90;;;20.60;99.90;;;;;;4917074;29;20395;-72
2022/05/26 11:13:35;;;;;;;1999.90;999.90;;;20.30;99.90;;;;;;4916688;29;20024;-72
2022/05/26 11:19:14;;;;;;;1999.90;999.90;;;19.80;99.90;;;;;;4908243;29;20047;-72
2022/05/26 11:21:39;;;;;;;1999.90;999.90;;;19.60;99.90;;;;;;4915604;29;20052;-76
2022/05/26 11:24:12;;;;;;;1999.90;999.90;;;19.60;99.90;;;;;;4917032;29;20573;-76
2022/05/26 11:26:40;;;;;;;1999.90;999.90;;;19.50;99.90;;;;;;4916321;29;20032;-72
2022/05/26 11:29:26;;;;;;;1999.90;999.90;;;19.20;99.90;;;;;;4916701;29;20028;-72
2022/05/26 11:38:45;;;;;;;1999.90;999.90;;;19.30;99.90;;;;;;4917086;29;20040;-76
2022/05/26 11:41:21;;;;;;;1999.90;999.90;;;19.20;99.90;;;;;;4914867;29;20036;-72
2022/05/26 11:44:08;;;;;;;1999.90;999.90;;;19.10;99.90;;;;;;4916456;29;20056;-76
2022/05/26 11:46:45;;;;;;;1999.90;999.90;;;19.20;99.90;;;;;;4920030;29;20036;-76
2022/05/26 11:49:32;;;;;;;1999.90;999.90;;;19.60;99.90;;;;;;4912786;29;20099;-72
2022/05/26 11:51:57;;;;;;;1999.90;999.90;;;19.70;99.90;;;;;;4910258;29;20131;-76
2022/05/26 11:54:55;;;;;;;1999.90;999.90;;;19.80;99.90;;;;;;4916509;29;20559;-76
2022/05/26 11:57:34;;;;;;;1999.90;999.90;;;19.80;99.90;;;;;;4915346;29;20024;-72
2022/05/26 12:00:19;;;;;;;1999.90;999.90;;;20.10;99.90;;;;;;4916103;29;20048;-76
2022/05/26 12:02:47;;;;;;;1999.90;999.90;;;20.20;99.90;;;;;;4916798;29;20403;-76
2022/05/26 12:05:31;;;;;;;1999.90;999.90;;;20.20;99.90;;;;;;4916003;29;20050;-76
2022/05/26 12:08:00;;;;;;;1999.90;999.90;;;20.40;99.90;;;;;;4916943;29;20099;-76
2022/05/26 12:10:29;;;;;;;1999.90;999.90;;;20.50;99.90;;;;;;4915758;29;20032;-76
2022/05/26 12:13:19;;;;;;;1999.90;999.90;;;20.50;99.90;;;;;;4928005;29;20199;-76
2022/05/26 12:16:15;;;;;;;1999.90;999.90;;;20.70;99.90;;;;;;4916316;29;20028;-76
2022/05/26 12:18:56;;;;;;;1999.90;999.90;;;20.60;99.90;;;;;;4905613;29;20036;-76
2022/05/26 12:21:28;;;;;;;1999.90;999.90;;;20.60;99.90;;;;;;4914743;29;20412;-72
2022/05/26 12:23:58;;;;;;;1999.90;999.90;;;20.40;99.90;;;;;;4915293;29;20515;-76
2022/05/26 12:26:47;;;;;;;1999.90;999.90;;;20.40;99.90;;;;;;4917528;29;20407;-76
2022/05/26 12:29:46;;;;;;;1999.90;999.90;;;20.40;99.90;;;;;;4918659;29;20028;-76
2022/05/26 12:32:32;;;;;;;1999.90;999.90;;;20.20;99.90;;;;;;4918339;29;20024;-76
2022/05/26 12:35:29;;;;;;;1999.90;999.90;;;20.10;99.90;;;;;;4916767;29;20044;-76
2022/05/26 12:38:16;;;;;;;1999.90;999.90;;;19.90;99.90;;;;;;4918164;29;20052;-76
2022/05/26 12:41:08;;;;;;;1999.90;999.90;;;19.80;99.90;;;;;;4918402;29;20032;-72
2022/05/26 12:44:04;;;;;;;1999.90;999.90;;;19.80;99.90;;;;;;4917859;29;20392;-76
2022/05/26 12:47:01;;;;;;;1999.90;999.90;;;19.80;99.90;;;;;;4922879;29;20100;-76
2022/05/26 12:49:39;;;;;;;1999.90;999.90;;;19.90;99.90;;;;;;4924967;29;20550;-76
2022/05/26 12:52:21;;;;;;;1999.90;999.90;;;19.90;99.90;;;;;;4926535;29;20032;-76
2022/05/26 12:55:35;;;;;;;1999.90;999.90;;;20.20;99.90;;;;;;4918326;29;20017;-72
2022/05/26 12:58:20;;;;;;;1999.90;999.90;;;20.40;99.90;;;;;;4913402;29;20047;-72
2022/05/26 13:00:55;;;;;;;1999.90;999.90;;;20.10;99.90;;;;;;4907043;29;20020;-76
2022/05/26 13:03:39;;;;;;;1999.90;999.90;;;20.30;99.90;;;;;;4917197;29;20103;-76
2022/05/26 13:06:25;;;;;;;1999.90;999.90;;;20.40;99.90;;;;;;4928440;29;20086;-72